Time;durP1;ratioP1;P1;durP2;ratioP2;P2;SDS_P1;SDS_P2;PMS_P1;PMS_P2;Temp;Humidity;BMP_temperature;BMP_pressure;BME280_temperature;BME280_humidity;BME280_pressure;Samples;Min_cycle;Max_cycle;Signal;HPM_P1;HPM_P2
2022/06/30 00:01:31;;;;;;;14.95;9.07;;;17.00;94.50;;;;;;5118244;27;20325;-68
2022/06/30 00:03:56;;;;;;;12.75;8.63;;;16.90;94.40;;;;;;5116143;27;20027;-68
2022/06/30 00:06:24;;;;;;;10.80;8.38;;;16.90;94.80;;;;;;5118669;27;20366;-68
2022/06/30 00:08:52;;;;;;;12.73;8.13;;;16.90;94.80;;;;;;5117995;27;20630;-67
2022/06/30 00:11:18;;;;;;;12.18;7.97;;;16.80;94.70;;;;;;5121756;27;20030;-68
2022/06/30 00:13:44;;;;;;;11.65;8.38;;;16.80;94.60;;;;;;5121390;27;20476;-67
2022/06/30 00:16:09;;;;;;;10.48;8.43;;;16.80;94.90;;;;;;5113728;28;20106;-67
2022/06/30 00:18:36;;;;;;;12.63;9.25;;;16.80;94.80;;;;;;5112975;28;20062;-67
2022/06/30 00:21:02;;;;;;;10.35;8.52;;;16.80;94.90;;;;;;5126132;27;20027;-67
2022/06/30 00:23:31;;;;;;;11.07;8.63;;;16.80;95.10;;;;;;5119829;27;20024;-69
2022/06/30 00:25:57;;;;;;;11.43;8.48;;;16.80;95.10;;;;;;5118973;27;20034;-69
2022/06/30 00:28:23;;;;;;;12.43;8.43;;;16.70;95.00;;;;;;5113838;28;20031;-68
2022/06/30 00:30:51;;;;;;;11.80;8.27;;;16.80;95.40;;;;;;5134624;27;20038;-68
2022/06/30 00:33:17;;;;;;;11.50;9.13;;;16.80;95.50;;;;;;5120257;27;20020;-68
2022/06/30 00:35:44;;;;;;;12.25;9.15;;;16.70;95.00;;;;;;5118269;27;20028;-68
2022/06/30 00:38:10;;;;;;;11.18;9.10;;;16.60;94.30;;;;;;5114516;27;20027;-68
2022/06/30 00:40:39;;;;;;;13.77;9.02;;;16.60;93.80;;;;;;5119961;27;20053;-67
2022/06/30 00:43:05;;;;;;;13.07;8.98;;;16.50;93.80;;;;;;5114312;28;20055;-68
2022/06/30 00:45:32;;;;;;;14.15;8.60;;;16.50;93.90;;;;;;5112623;27;20420;-68
2022/06/30 00:47:59;;;;;;;12.90;9.10;;;16.50;93.70;;;;;;5116589;27;20032;-68
2022/06/30 00:50:26;;;;;;;12.20;9.35;;;16.50;93.90;;;;;;5128941;27;20100;-68
2022/06/30 00:52:52;;;;;;;13.55;9.80;;;16.40;93.50;;;;;;5123521;27;20023;-67
2022/06/30 00:55:19;;;;;;;12.90;9.32;;;16.30;93.10;;;;;;5114960;28;20049;-67
2022/06/30 00:57:45;;;;;;;11.80;8.75;;;16.30;93.00;;;;;;5114101;28;20018;-68
2022/06/30 01:00:13;;;;;;;12.02;9.18;;;16.30;92.90;;;;;;5117679;28;20057;-67
2022/06/30 01:02:39;;;;;;;11.68;8.75;;;16.30;92.70;;;;;;5125540;28;20064;-67
2022/06/30 01:05:06;;;;;;;13.30;8.95;;;16.30;92.90;;;;;;5116313;28;20359;-67
2022/06/30 01:07:33;;;;;;;10.90;9.10;;;16.30;92.90;;;;;;5113680;28;20028;-67
2022/06/30 01:12:45;;;;;;;13.52;9.13;;;16.30;92.60;;;;;;5112926;28;20073;-67
2022/06/30 01:15:17;;;;;;;15.57;10.45;;;16.20;92.60;;;;;;5116241;28;20118;-68
2022/06/30 01:17:45;;;;;;;22.40;9.48;;;16.30;92.80;;;;;;5119865;28;20024;-67
2022/06/30 01:20:12;;;;;;;12.23;9.88;;;16.20;92.60;;;;;;5116713;27;20028;-68
2022/06/30 01:22:38;;;;;;;13.65;8.48;;;16.20;92.70;;;;;;5118527;27;20024;-67
2022/06/30 01:25:05;;;;;;;12.75;9.18;;;16.20;92.60;;;;;;5121318;27;20032;-67
2022/06/30 01:27:31;;;;;;;12.38;9.63;;;16.20;92.70;;;;;;5120805;27;20027;-67
2022/06/30 01:29:58;;;;;;;12.57;9.10;;;16.10;92.60;;;;;;5121691;27;20031;-68
2022/06/30 01:32:25;;;;;;;13.60;9.13;;;16.10;92.60;;;;;;5104477;28;20088;-67
2022/06/30 01:34:51;;;;;;;11.38;8.85;;;16.10;92.30;;;;;;5117696;28;20023;-68
2022/06/30 01:37:17;;;;;;;15.18;9.52;;;16.10;92.30;;;;;;5109625;27;20024;-68
2022/06/30 01:39:42;;;;;;;10.77;8.60;;;16.10;92.70;;;;;;5118204;27;20320;-67
2022/06/30 01:42:08;;;;;;;14.15;9.38;;;16.00;92.80;;;;;;5120874;27;20063;-68
2022/06/30 01:44:34;;;;;;;12.27;9.45;;;16.00;92.50;;;;;;5125057;27;20044;-68
2022/06/30 01:47:00;;;;;;;16.85;9.05;;;15.90;92.40;;;;;;5119890;27;20069;-67
2022/06/30 01:49:26;;;;;;;10.88;8.88;;;15.90;92.30;;;;;;5120977;27;20031;-68
2022/06/30 01:51:52;;;;;;;11.32;9.50;;;15.80;92.20;;;;;;5113830;27;20019;-68
2022/06/30 01:54:17;;;;;;;13.10;9.60;;;15.80;92.00;;;;;;5121707;27;20030;-67
2022/06/30 01:56:43;;;;;;;12.13;9.07;;;15.80;91.80;;;;;;5117514;27;20420;-68
2022/06/30 01:59:09;;;;;;;14.25;9.85;;;15.80;91.20;;;;;;5116666;28;20088;-68
2022/06/30 02:01:35;;;;;;;23.13;10.18;;;15.80;91.40;;;;;;5118406;27;20028;-67
2022/06/30 02:04:46;;;;;;;12.30;10.32;;;15.80;91.20;;;;;;5123074;27;20024;-67
2022/06/30 02:06:47;;;;;;;14.70;10.70;;;15.80;91.30;;;;;;5128121;27;20023;-67
2022/06/30 02:09:12;;;;;;;12.18;9.77;;;15.70;91.20;;;;;;5116693;27;20031;-67
2022/06/30 02:11:38;;;;;;;14.15;9.40;;;15.70;91.00;;;;;;5119148;27;21616;-68
2022/06/30 02:14:04;;;;;;;15.00;10.40;;;15.70;91.10;;;;;;5115020;27;20030;-68
2022/06/30 02:16:30;;;;;;;13.30;9.40;;;15.60;91.00;;;;;;5118051;27;20035;-68
2022/06/30 02:18:56;;;;;;;15.15;9.52;;;15.60;90.80;;;;;;5119035;27;20027;-67
2022/06/30 02:21:22;;;;;;;11.82;10.00;;;15.60;90.80;;;;;;5116140;28;20098;-67
2022/06/30 02:23:47;;;;;;;12.65;10.02;;;15.60;90.90;;;;;;5115469;28;20606;-67
2022/06/30 02:26:13;;;;;;;13.85;9.80;;;15.60;91.30;;;;;;5118059;28;20073;-68
2022/06/30 02:28:38;;;;;;;13.75;9.80;;;15.60;91.40;;;;;;5116411;27;20366;-68
2022/06/30 02:31:04;;;;;;;17.42;10.15;;;15.60;91.30;;;;;;5117372;27;20309;-68
2022/06/30 02:33:30;;;;;;;11.93;9.70;;;15.60;91.00;;;;;;5117598;27;20019;-68
2022/06/30 02:35:55;;;;;;;14.13;9.60;;;15.60;91.50;;;;;;5122997;27;20020;-68
2022/06/30 02:38:21;;;;;;;12.60;9.65;;;15.60;91.00;;;;;;5116821;28;20027;-68
2022/06/30 02:40:47;;;;;;;13.35;9.77;;;15.70;91.30;;;;;;5117279;27;20024;-68
2022/06/30 02:43:12;;;;;;;12.85;9.38;;;15.70;91.70;;;;;;5118767;27;20081;-68
2022/06/30 02:45:38;;;;;;;11.60;9.82;;;15.70;92.30;;;;;;5118020;27;20024;-68
2022/06/30 02:48:06;;;;;;;14.50;10.07;;;15.60;92.70;;;;;;5120103;27;20027;-67
2022/06/30 02:50:32;;;;;;;15.15;10.13;;;15.60;91.60;;;;;;5119269;27;20086;-68
2022/06/30 02:52:58;;;;;;;13.57;9.80;;;15.70;91.30;;;;;;5119409;27;20031;-68
2022/06/30 02:55:23;;;;;;;14.00;10.10;;;15.70;91.40;;;;;;5121086;27;20080;-67
2022/06/30 02:57:49;;;;;;;14.07;9.80;;;15.80;91.70;;;;;;5118469;27;20439;-67
2022/06/30 03:00:15;;;;;;;14.70;10.35;;;15.70;92.10;;;;;;5114883;28;20038;-68
2022/06/30 03:02:41;;;;;;;13.52;10.18;;;15.70;91.80;;;;;;5116736;28;20019;-68
2022/06/30 03:05:09;;;;;;;16.98;10.98;;;15.60;91.40;;;;;;5115662;28;20065;-67
2022/06/30 03:07:34;;;;;;;14.77;11.00;;;15.60;91.10;;;;;;5114663;27;20122;-66
2022/06/30 03:10:00;;;;;;;15.45;10.32;;;15.60;91.40;;;;;;5116864;27;20156;-67
2022/06/30 03:12:26;;;;;;;14.95;10.20;;;15.60;90.70;;;;;;5116525;27;20104;-67
2022/06/30 03:14:52;;;;;;;14.25;9.43;;;15.60;90.80;;;;;;5115799;27;20028;-67
2022/06/30 03:17:17;;;;;;;12.27;9.90;;;15.70;90.70;;;;;;5114526;28;20412;-69
2022/06/30 03:19:43;;;;;;;15.05;11.38;;;15.70;91.10;;;;;;5114189;28;20091;-70
2022/06/30 03:22:08;;;;;;;15.38;10.05;;;15.70;91.30;;;;;;5116381;27;20032;-68
2022/06/30 03:24:35;;;;;;;11.70;10.50;;;15.70;91.50;;;;;;5112572;27;20026;-67
2022/06/30 03:27:01;;;;;;;14.40;9.75;;;15.60;91.50;;;;;;5107637;27;20024;-68
2022/06/30 03:29:26;;;;;;;15.27;10.93;;;15.60;91.40;;;;;;5117434;27;20397;-67
2022/06/30 03:31:52;;;;;;;13.98;10.75;;;15.60;91.30;;;;;;5111388;28;20053;-68
2022/06/30 03:34:18;;;;;;;13.23;9.77;;;15.60;91.50;;;;;;5126875;27;20034;-67
2022/06/30 03:36:43;;;;;;;13.23;9.10;;;15.60;91.10;;;;;;5109145;27;20038;-68
2022/06/30 03:39:09;;;;;;;12.63;9.63;;;15.60;91.10;;;;;;5129469;27;20028;-68
2022/06/30 03:41:35;;;;;;;13.57;10.02;;;15.60;90.90;;;;;;5117219;27;20123;-68
2022/06/30 03:44:00;;;;;;;14.23;10.85;;;15.60;90.90;;;;;;5115053;27;20343;-68
2022/06/30 03:46:26;;;;;;;13.85;10.10;;;15.50;91.10;;;;;;5110889;27;20035;-68
2022/06/30 03:48:55;;;;;;;17.88;10.52;;;15.40;90.80;;;;;;5112369;27;20066;-67
2022/06/30 03:51:21;;;;;;;10.77;9.32;;;15.40;90.40;;;;;;5112908;28;20023;-68
2022/06/30 03:53:46;;;;;;;12.93;10.00;;;15.40;90.60;;;;;;5105569;27;20038;-68
2022/06/30 03:56:18;;;;;;;13.60;10.05;;;15.30;90.70;;;;;;5114962;28;20035;-68
2022/06/30 03:58:47;;;;;;;13.50;9.73;;;15.20;90.40;;;;;;5113846;28;20028;-66
2022/06/30 04:01:12;;;;;;;10.15;8.75;;;15.20;90.30;;;;;;5115388;27;20079;-67
2022/06/30 04:03:38;;;;;;;13.27;10.48;;;15.10;90.00;;;;;;5114811;27;20023;-68
2022/06/30 04:06:04;;;;;;;14.85;10.07;;;15.00;90.10;;;;;;5115003;27;20070;-68
2022/06/30 04:08:29;;;;;;;15.32;9.98;;;15.00;89.70;;;;;;5113364;27;20320;-68
2022/06/30 04:10:55;;;;;;;13.23;9.18;;;15.00;90.00;;;;;;5110049;28;20055;-67
2022/06/30 04:13:21;;;;;;;11.95;9.13;;;15.00;89.00;;;;;;5114663;27;20020;-68
2022/06/30 04:15:47;;;;;;;14.15;9.65;;;15.00;88.80;;;;;;5115895;27;20038;-68
2022/06/30 04:18:12;;;;;;;14.05;9.75;;;15.00;89.00;;;;;;5114217;27;20023;-68
2022/06/30 04:20:38;;;;;;;14.27;11.35;;;15.10;88.80;;;;;;5114628;28;20031;-68
2022/06/30 04:23:04;;;;;;;13.38;9.55;;;15.10;88.30;;;;;;5115755;28;20428;-68
2022/06/30 04:25:29;;;;;;;12.63;10.27;;;15.20;88.10;;;;;;5114685;27;20023;-67
2022/06/30 04:27:58;;;;;;;13.05;10.15;;;15.20;88.00;;;;;;5115404;27;20024;-68
2022/06/30 04:33:11;;;;;;;12.07;9.95;;;15.20;88.90;;;;;;5110705;27;20042;-68
2022/06/30 04:35:36;;;;;;;12.25;10.00;;;15.20;88.60;;;;;;5110257;28;20028;-68
2022/06/30 04:38:04;;;;;;;13.75;11.77;;;15.30;88.00;;;;;;5105380;27;20024;-67
2022/06/30 04:43:14;;;;;;;12.82;9.10;;;15.40;88.30;;;;;;5116903;27;20099;-67
2022/06/30 04:45:40;;;;;;;13.32;9.40;;;15.50;88.20;;;;;;5109672;27;20035;-67
2022/06/30 04:48:07;;;;;;;10.60;9.32;;;15.50;88.50;;;;;;5109916;28;20028;-67
2022/06/30 04:50:33;;;;;;;12.00;9.60;;;15.70;88.90;;;;;;5112472;28;20054;-67
2022/06/30 04:52:58;;;;;;;14.18;11.50;;;15.70;89.90;;;;;;5117715;28;20149;-68
2022/06/30 04:55:24;;;;;;;10.48;8.73;;;15.70;89.80;;;;;;5111989;28;20099;-67
2022/06/30 04:57:50;;;;;;;14.43;10.05;;;15.70;89.60;;;;;;5111296;28;20031;-67
2022/06/30 05:00:16;;;;;;;11.43;9.13;;;15.70;89.70;;;;;;5111341;28;20043;-68
2022/06/30 05:02:41;;;;;;;11.57;8.95;;;15.70;89.80;;;;;;5112382;28;20364;-67
2022/06/30 05:05:08;;;;;;;12.40;9.82;;;15.90;89.40;;;;;;5120716;28;20035;-67
2022/06/30 05:07:33;;;;;;;14.80;9.38;;;16.00;89.50;;;;;;5113254;28;20031;-68
2022/06/30 05:09:59;;;;;;;10.18;9.07;;;16.10;89.70;;;;;;5114223;28;20320;-67
2022/06/30 05:12:25;;;;;;;11.73;9.57;;;16.20;90.20;;;;;;5119195;28;20031;-68
2022/06/30 05:14:50;;;;;;;13.45;10.88;;;16.40;90.60;;;;;;5115162;28;20027;-68
2022/06/30 05:17:16;;;;;;;10.38;8.18;;;16.40;91.70;;;;;;5119243;28;20016;-67
2022/06/30 05:19:41;;;;;;;11.55;9.18;;;16.50;91.30;;;;;;5114458;28;20024;-67
2022/06/30 05:22:07;;;;;;;11.40;9.25;;;16.70;92.40;;;;;;5115751;28;20332;-67
2022/06/30 05:27:17;;;;;;;;;;;17.00;93.80;;;;;;5107934;28;20039;-67
2022/06/30 05:29:43;;;;;;;11.75;8.25;;;17.20;94.80;;;;;;5114501;28;19911;-67
2022/06/30 05:32:12;;;;;;;11.25;8.23;;;17.40;95.60;;;;;;5130035;28;20412;-68
2022/06/30 05:34:37;;;;;;;10.00;7.95;;;17.50;95.50;;;;;;5117809;28;20032;-67
2022/06/30 05:37:04;;;;;;;12.85;8.57;;;17.60;95.40;;;;;;5112181;28;20106;-67
2022/06/30 05:39:31;;;;;;;10.10;8.10;;;17.70;95.90;;;;;;5108887;28;20027;-68
2022/06/30 05:41:57;;;;;;;12.85;8.75;;;17.80;96.00;;;;;;5108787;28;20027;-67
2022/06/30 05:44:22;;;;;;;11.02;7.80;;;18.00;96.40;;;;;;5117658;28;20051;-68
2022/06/30 05:46:48;;;;;;;9.35;7.65;;;18.10;96.80;;;;;;5100948;28;20311;-67
2022/06/30 05:49:13;;;;;;;8.23;7.18;;;18.30;96.90;;;;;;5113873;28;20047;-67
2022/06/30 05:51:39;;;;;;;9.23;6.57;;;18.50;97.20;;;;;;5115727;28;20106;-67
2022/06/30 05:54:05;;;;;;;10.90;7.22;;;18.70;97.90;;;;;;5119304;28;20043;-68
2022/06/30 05:56:31;;;;;;;11.93;7.93;;;18.90;98.00;;;;;;5123553;28;20031;-67
2022/06/30 05:58:56;;;;;;;11.65;7.93;;;19.00;98.00;;;;;;5116687;28;20042;-67
2022/06/30 06:01:22;;;;;;;11.25;7.90;;;19.10;98.00;;;;;;5126550;28;20032;-67
2022/06/30 06:03:48;;;;;;;10.38;7.13;;;19.20;98.00;;;;;;5113787;28;20020;-67
2022/06/30 06:06:13;;;;;;;10.27;6.22;;;19.30;98.00;;;;;;5114874;27;20032;-67
2022/06/30 06:08:40;;;;;;;10.30;7.70;;;19.60;98.00;;;;;;5120494;27;20034;-67
2022/06/30 06:11:06;;;;;;;11.45;7.32;;;19.70;98.00;;;;;;5120575;27;20023;-67
2022/06/30 06:13:31;;;;;;;8.90;6.72;;;19.90;98.00;;;;;;5125995;27;20030;-68
2022/06/30 06:15:57;;;;;;;9.95;6.93;;;20.10;98.00;;;;;;5118020;28;20115;-66
2022/06/30 06:18:22;;;;;;;11.18;6.78;;;20.20;98.00;;;;;;5116125;27;20156;-69
2022/06/30 06:20:48;;;;;;;10.52;7.05;;;20.40;98.00;;;;;;5114221;27;20019;-68
2022/06/30 06:23:14;;;;;;;13.00;6.95;;;20.50;98.00;;;;;;5119071;27;20072;-68
2022/06/30 06:25:39;;;;;;;12.70;7.60;;;20.60;97.90;;;;;;5117902;28;20130;-66
2022/06/30 06:30:54;;;;;;;12.48;6.70;;;20.80;97.50;;;;;;5123027;27;20610;-68
2022/06/30 06:33:19;;;;;;;13.05;7.25;;;21.00;97.20;;;;;;5118495;27;20046;-67
2022/06/30 06:35:45;;;;;;;10.35;6.75;;;21.10;96.90;;;;;;5121524;27;20024;-68
2022/06/30 06:38:11;;;;;;;12.93;6.35;;;21.30;96.70;;;;;;5123066;27;20031;-67
2022/06/30 06:40:36;;;;;;;13.10;5.93;;;21.50;96.60;;;;;;5123253;27;20024;-68
2022/06/30 06:43:09;;;;;;;7.88;5.75;;;21.60;96.80;;;;;;5122848;27;20049;-67
2022/06/30 06:45:35;;;;;;;10.48;6.20;;;21.70;96.50;;;;;;5125642;27;20031;-67
2022/06/30 06:48:15;;;;;;;8.32;5.82;;;21.90;96.00;;;;;;5118282;27;20036;-67
2022/06/30 06:50:43;;;;;;;12.80;5.93;;;21.90;96.00;;;;;;5118844;28;20019;-67
2022/06/30 06:53:10;;;;;;;9.15;5.75;;;22.10;95.90;;;;;;5118834;28;20024;-67
2022/06/30 06:55:38;;;;;;;8.52;5.88;;;22.10;96.10;;;;;;5117752;28;20118;-67
2022/06/30 06:58:05;;;;;;;8.40;6.20;;;22.10;96.00;;;;;;5118528;28;20022;-67
2022/06/30 07:00:31;;;;;;;10.07;6.10;;;22.20;95.40;;;;;;5118125;28;20032;-68
2022/06/30 07:02:56;;;;;;;14.60;6.15;;;22.30;95.90;;;;;;5115510;27;20020;-66
2022/06/30 07:05:22;;;;;;;9.65;5.80;;;22.40;96.00;;;;;;5117464;27;20126;-67
2022/06/30 07:07:59;;;;;;;9.32;6.00;;;22.50;95.30;;;;;;5117003;28;20023;-68
2022/06/30 07:10:25;;;;;;;8.45;5.95;;;22.50;96.00;;;;;;5117162;28;20059;-67
2022/06/30 07:12:52;;;;;;;7.57;5.43;;;22.50;95.60;;;;;;5117480;28;20024;-68
2022/06/30 07:15:17;;;;;;;8.80;5.43;;;22.60;95.80;;;;;;5116728;28;20028;-67
2022/06/30 07:17:43;;;;;;;8.80;6.47;;;22.60;95.80;;;;;;5114845;28;20374;-67
2022/06/30 07:20:09;;;;;;;10.10;5.95;;;22.70;95.50;;;;;;5115542;28;20346;-67
2022/06/30 07:22:35;;;;;;;8.50;5.65;;;22.70;95.60;;;;;;5116600;28;20020;-67
2022/06/30 07:25:02;;;;;;;12.32;5.40;;;22.80;95.50;;;;;;5113309;28;20031;-67
2022/06/30 07:27:28;;;;;;;7.28;4.82;;;23.20;94.80;;;;;;5114137;27;20058;-67
2022/06/30 07:29:54;;;;;;;6.30;4.00;;;24.00;92.80;;;;;;5114385;28;20051;-67
2022/06/30 07:32:20;;;;;;;11.10;4.95;;;25.20;89.50;;;;;;5116243;28;20088;-67
2022/06/30 07:34:45;;;;;;;5.88;4.10;;;26.50;86.10;;;;;;5110466;27;20100;-67
2022/06/30 07:37:11;;;;;;;10.00;4.25;;;27.60;84.10;;;;;;5115145;27;20032;-67
2022/06/30 07:39:36;;;;;;;9.52;3.88;;;28.50;80.00;;;;;;5114488;27;20319;-67
2022/06/30 07:42:03;;;;;;;8.57;4.00;;;28.00;81.00;;;;;;5110450;27;20024;-66
2022/06/30 07:44:28;;;;;;;6.82;3.95;;;28.00;80.80;;;;;;5116649;27;20055;-68
2022/06/30 07:46:54;;;;;;;6.78;3.47;;;28.70;80.10;;;;;;5115032;28;20115;-67
2022/06/30 07:49:20;;;;;;;8.10;3.72;;;29.20;79.00;;;;;;5115154;28;20030;-68
2022/06/30 07:51:45;;;;;;;13.38;4.35;;;29.50;76.40;;;;;;5124555;27;20031;-67
2022/06/30 07:54:11;;;;;;;9.38;3.60;;;29.60;75.50;;;;;;5124446;27;20042;-67
2022/06/30 07:56:37;;;;;;;11.57;3.60;;;29.20;75.90;;;;;;5114356;27;20399;-67
2022/06/30 07:59:02;;;;;;;9.27;3.38;;;29.20;75.60;;;;;;5114029;27;20024;-67
2022/06/30 08:01:28;;;;;;;8.70;3.10;;;29.80;75.00;;;;;;5113415;28;20041;-67
2022/06/30 08:03:54;;;;;;;6.28;2.50;;;30.80;69.00;;;;;;5114737;28;20038;-67
2022/06/30 08:06:21;;;;;;;8.38;2.30;;;31.50;63.60;;;;;;5114776;28;20104;-67
2022/06/30 08:08:47;;;;;;;6.68;2.47;;;31.90;62.70;;;;;;5102432;28;20034;-67
2022/06/30 08:11:13;;;;;;;7.25;2.60;;;31.80;63.20;;;;;;5115343;28;20123;-67
2022/06/30 08:13:41;;;;;;;8.70;2.42;;;31.90;61.20;;;;;;5115724;28;20054;-67
2022/06/30 08:16:07;;;;;;;7.00;2.40;;;31.90;62.40;;;;;;5114561;28;20497;-67
2022/06/30 08:18:32;;;;;;;7.38;2.30;;;31.70;62.90;;;;;;5120938;27;20019;-67
2022/06/30 08:20:58;;;;;;;6.60;2.67;;;31.80;63.00;;;;;;5113654;28;20475;-67
2022/06/30 08:23:24;;;;;;;7.18;2.20;;;32.50;62.70;;;;;;5114317;28;20412;-67
2022/06/30 08:25:52;;;;;;;6.20;2.63;;;32.90;60.40;;;;;;5115657;28;20400;-68
2022/06/30 08:28:18;;;;;;;6.53;2.40;;;33.20;58.80;;;;;;5113998;27;20036;-71
2022/06/30 08:30:44;;;;;;;6.85;2.47;;;33.40;60.00;;;;;;5115313;28;20026;-66
2022/06/30 08:33:10;;;;;;;8.40;2.35;;;33.80;59.20;;;;;;5113187;28;20479;-66
2022/06/30 08:35:36;;;;;;;7.22;2.47;;;33.80;59.00;;;;;;5113494;28;20115;-65
2022/06/30 08:38:02;;;;;;;8.25;2.60;;;34.00;57.50;;;;;;5118797;27;20110;-65
2022/06/30 08:43:13;;;;;;;7.32;2.10;;;33.80;57.10;;;;;;5113981;28;20101;-66
2022/06/30 08:45:42;;;;;;;5.50;2.03;;;33.30;59.00;;;;;;5115020;28;20422;-66
2022/06/30 08:48:08;;;;;;;7.35;2.45;;;33.80;58.70;;;;;;5111859;28;20035;-71
2022/06/30 08:50:34;;;;;;;7.35;2.25;;;34.70;58.30;;;;;;5113557;28;20027;-65
2022/06/30 08:53:02;;;;;;;5.95;2.30;;;34.50;52.70;;;;;;5114193;28;20055;-66
2022/06/30 08:55:31;;;;;;;5.07;1.83;;;34.10;55.80;;;;;;5115065;28;20027;-65
2022/06/30 08:58:05;;;;;;;6.45;2.28;;;34.10;55.70;;;;;;5116766;27;20027;-65
2022/06/30 09:00:32;;;;;;;6.07;2.40;;;34.80;55.90;;;;;;5117087;27;20019;-65
2022/06/30 09:02:58;;;;;;;8.52;2.50;;;34.10;56.60;;;;;;5113137;28;20074;-65
2022/06/30 09:05:24;;;;;;;7.20;2.72;;;33.20;56.40;;;;;;5111362;28;20383;-66
2022/06/30 09:07:49;;;;;;;8.10;2.55;;;32.70;58.20;;;;;;5118184;28;20024;-65
2022/06/30 09:10:15;;;;;;;7.78;2.55;;;33.20;57.90;;;;;;5114078;28;20084;-66
2022/06/30 09:12:56;;;;;;;6.65;2.60;;;32.90;58.60;;;;;;5113975;28;20042;-66
2022/06/30 09:15:21;;;;;;;6.63;2.70;;;32.70;58.80;;;;;;5111609;28;20118;-66
2022/06/30 09:17:47;;;;;;;5.63;2.35;;;32.70;60.90;;;;;;5114987;28;20169;-65
2022/06/30 09:20:14;;;;;;;6.15;2.40;;;33.30;57.30;;;;;;5112490;28;20062;-66
2022/06/30 09:22:41;;;;;;;5.35;2.03;;;33.90;55.40;;;;;;5114818;28;20028;-65
2022/06/30 09:25:09;;;;;;;6.72;2.20;;;34.50;54.60;;;;;;5115156;28;20032;-66
2022/06/30 09:27:38;;;;;;;4.93;2.33;;;34.40;54.40;;;;;;5114163;28;20027;-65
2022/06/30 09:30:09;;;;;;;7.43;2.25;;;33.80;56.50;;;;;;5112180;28;20028;-65
2022/06/30 09:33:02;;;;;;;7.07;2.22;;;33.40;55.20;;;;;;5114243;28;20057;-65
2022/06/30 09:35:30;;;;;;;7.25;2.17;;;33.60;56.40;;;;;;5113097;28;20088;-65
2022/06/30 09:38:06;;;;;;;6.60;2.13;;;34.20;54.90;;;;;;5114089;28;20083;-65
2022/06/30 09:41:00;;;;;;;5.50;2.10;;;34.60;56.40;;;;;;5115135;28;20098;-67
2022/06/30 09:43:36;;;;;;;8.70;2.60;;;35.00;54.30;;;;;;5117393;28;20044;-67
2022/06/30 09:46:03;;;;;;;6.85;2.10;;;34.90;53.40;;;;;;5116320;28;20036;-66
2022/06/30 09:48:32;;;;;;;5.47;2.22;;;34.50;54.50;;;;;;5116715;28;20023;-66
2022/06/30 09:51:02;;;;;;;6.65;2.10;;;34.00;55.50;;;;;;5116613;28;20439;-67
2022/06/30 09:53:28;;;;;;;8.05;2.60;;;33.90;57.20;;;;;;5117330;27;20409;-65
2022/06/30 09:55:54;;;;;;;6.28;2.45;;;34.00;54.90;;;;;;5125631;27;20043;-65
2022/06/30 09:58:28;;;;;;;5.80;2.30;;;33.90;56.80;;;;;;5117292;28;20028;-65
2022/06/30 10:00:54;;;;;;;7.22;2.50;;;33.60;54.50;;;;;;5115468;28;20235;-65
2022/06/30 10:03:20;;;;;;;5.95;2.40;;;34.30;55.30;;;;;;5115207;28;20043;-65
2022/06/30 10:05:48;;;;;;;8.85;2.58;;;34.70;56.10;;;;;;5115933;28;20035;-65
2022/06/30 10:08:16;;;;;;;4.50;2.15;;;35.20;55.20;;;;;;5117710;28;20071;-66
2022/06/30 10:10:43;;;;;;;7.95;2.40;;;35.70;53.80;;;;;;5116645;28;20059;-65
2022/06/30 10:13:14;;;;;;;5.70;2.20;;;35.40;53.90;;;;;;5118083;28;20027;-65
2022/06/30 10:15:41;;;;;;;8.65;2.50;;;34.70;55.10;;;;;;5125622;27;20421;-65
2022/06/30 10:18:11;;;;;;;7.63;2.53;;;34.00;53.90;;;;;;5112013;28;20078;-65
2022/06/30 10:20:38;;;;;;;5.72;2.55;;;33.80;55.20;;;;;;5117077;27;20020;-65
2022/06/30 10:23:13;;;;;;;6.10;2.72;;;34.20;56.70;;;;;;5116794;28;20024;-66
2022/06/30 10:25:41;;;;;;;6.78;2.55;;;33.40;56.70;;;;;;5116294;28;20432;-66
2022/06/30 10:28:06;;;;;;;8.02;2.88;;;32.20;57.00;;;;;;5118683;27;20032;-66
2022/06/30 10:30:50;;;;;;;6.80;2.75;;;31.40;59.80;;;;;;5117001;27;20015;-66
2022/06/30 10:33:47;;;;;;;5.60;2.75;;;32.00;58.60;;;;;;5115263;28;20080;-65
2022/06/30 10:36:22;;;;;;;6.47;2.75;;;32.80;57.60;;;;;;5097363;28;20036;-65
2022/06/30 10:39:00;;;;;;;5.15;2.70;;;33.10;58.80;;;;;;5113628;28;20024;-65
2022/06/30 10:41:26;;;;;;;5.45;2.50;;;33.60;59.00;;;;;;5097498;28;20058;-66
2022/06/30 10:44:04;;;;;;;9.85;2.85;;;34.30;56.50;;;;;;5115939;27;20431;-65
2022/06/30 10:46:34;;;;;;;7.68;2.88;;;34.20;55.10;;;;;;5107441;28;20081;-65
2022/06/30 10:49:08;;;;;;;6.43;2.90;;;34.50;57.10;;;;;;5114877;28;20051;-66
2022/06/30 10:51:33;;;;;;;7.72;2.97;;;34.50;56.70;;;;;;5115660;28;20081;-65
2022/06/30 10:53:59;;;;;;;6.53;2.70;;;34.00;56.70;;;;;;5114701;28;20036;-65
2022/06/30 10:56:54;;;;;;;10.73;3.42;;;33.40;56.50;;;;;;5116454;28;20100;-65
2022/06/30 10:59:36;;;;;;;6.72;2.75;;;33.70;57.00;;;;;;5117384;28;20077;-65
2022/06/30 11:02:08;;;;;;;22.65;4.57;;;33.90;55.50;;;;;;5115569;28;20028;-64
2022/06/30 11:04:41;;;;;;;7.95;2.70;;;34.00;57.00;;;;;;5114801;28;20027;-66
2022/06/30 11:07:14;;;;;;;5.78;3.10;;;34.10;55.30;;;;;;5115283;28;20114;-65
2022/06/30 11:09:49;;;;;;;7.03;2.78;;;34.30;56.30;;;;;;5116598;28;20028;-65
2022/06/30 11:12:17;;;;;;;7.82;4.78;;;33.70;55.80;;;;;;5114518;28;20119;-66
2022/06/30 11:14:54;;;;;;;8.90;3.63;;;33.30;57.70;;;;;;5123689;27;20308;-66
2022/06/30 11:17:29;;;;;;;6.63;2.92;;;33.60;56.00;;;;;;5126495;27;20051;-65
2022/06/30 11:20:05;;;;;;;8.50;3.25;;;34.00;56.60;;;;;;5118257;27;20323;-65
2022/06/30 11:22:31;;;;;;;11.60;4.90;;;34.50;56.20;;;;;;5116506;28;20027;-65
2022/06/30 11:25:01;;;;;;;6.97;2.75;;;34.50;54.90;;;;;;5115191;28;20105;-65
2022/06/30 11:27:32;;;;;;;6.53;2.42;;;33.90;55.60;;;;;;5116409;28;20412;-65
2022/06/30 11:29:58;;;;;;;6.00;2.28;;;33.50;54.80;;;;;;5113482;28;20032;-66
2022/06/30 11:32:25;;;;;;;7.45;3.17;;;33.30;56.40;;;;;;5115547;28;20044;-65
2022/06/30 11:34:52;;;;;;;6.95;3.42;;;33.10;58.00;;;;;;5113275;28;20438;-66
2022/06/30 11:37:22;;;;;;;10.10;3.65;;;33.00;57.60;;;;;;5113916;27;20066;-63
2022/06/30 11:39:56;;;;;;;6.00;2.95;;;33.10;56.70;;;;;;5104826;28;20456;-65
2022/06/30 11:42:22;;;;;;;10.43;3.20;;;32.90;56.80;;;;;;5112210;28;20039;-65
2022/06/30 11:44:48;;;;;;;8.57;3.05;;;32.90;57.60;;;;;;5115177;28;20042;-66
2022/06/30 11:47:18;;;;;;;28.58;4.03;;;32.60;55.90;;;;;;5115120;28;20039;-66
2022/06/30 11:49:48;;;;;;;6.28;3.05;;;31.90;59.10;;;;;;5112947;28;20028;-65
2022/06/30 11:52:15;;;;;;;6.57;3.58;;;31.10;59.20;;;;;;5113910;28;20031;-65
2022/06/30 11:54:53;;;;;;;6.82;3.20;;;30.40;61.40;;;;;;5115105;28;20354;-65
2022/06/30 11:57:24;;;;;;;8.82;4.05;;;30.30;62.30;;;;;;5114672;28;20116;-65
2022/06/30 11:59:52;;;;;;;8.73;3.80;;;30.80;63.10;;;;;;5113257;27;20020;-66
2022/06/30 12:02:19;;;;;;;7.57;3.22;;;31.70;61.10;;;;;;5122297;27;20024;-65
2022/06/30 12:04:51;;;;;;;7.10;2.90;;;31.70;58.80;;;;;;5110496;27;20063;-65
2022/06/30 12:07:18;;;;;;;5.93;3.03;;;31.60;57.90;;;;;;5100385;28;20039;-65
2022/06/30 12:09:45;;;;;;;5.85;3.00;;;31.80;59.40;;;;;;5114916;28;20062;-66
2022/06/30 12:12:11;;;;;;;5.20;2.90;;;31.70;60.10;;;;;;5112684;28;20030;-65
2022/06/30 12:14:39;;;;;;;7.45;3.05;;;31.80;60.10;;;;;;5115212;28;20035;-65
2022/06/30 12:17:07;;;;;;;6.57;3.20;;;32.30;57.70;;;;;;5112324;28;20031;-65
2022/06/30 12:19:33;;;;;;;5.90;2.88;;;32.60;57.50;;;;;;5113529;27;20027;-65
2022/06/30 12:22:02;;;;;;;7.72;2.97;;;32.60;59.10;;;;;;5112718;28;20423;-65
2022/06/30 12:24:28;;;;;;;6.38;2.95;;;32.30;61.50;;;;;;5113112;28;20024;-65
2022/06/30 12:26:56;;;;;;;7.53;3.30;;;32.30;60.60;;;;;;5113070;28;20103;-64
2022/06/30 12:29:24;;;;;;;7.72;2.90;;;32.40;60.90;;;;;;5114446;28;20024;-64
2022/06/30 12:32:08;;;;;;;7.47;3.15;;;33.10;61.30;;;;;;5115025;28;20039;-63
2022/06/30 12:34:58;;;;;;;8.50;2.90;;;33.30;61.90;;;;;;5110925;27;20030;-65
2022/06/30 12:37:34;;;;;;;7.20;3.42;;;33.90;59.30;;;;;;5114048;28;20031;-65
2022/06/30 12:40:04;;;;;;;5.88;2.85;;;34.50;62.10;;;;;;5113205;28;20301;-65
2022/06/30 12:42:39;;;;;;;10.07;3.42;;;34.70;58.20;;;;;;5113510;28;20043;-65
2022/06/30 12:45:26;;;;;;;7.32;2.88;;;35.00;55.50;;;;;;5114245;28;20039;-65
2022/06/30 12:47:52;;;;;;;7.70;3.00;;;35.20;54.40;;;;;;5109546;28;20193;-65
2022/06/30 12:50:20;;;;;;;6.95;3.13;;;35.40;55.30;;;;;;5111407;28;20469;-66
2022/06/30 12:52:45;;;;;;;7.60;2.85;;;36.00;57.40;;;;;;5113188;28;20047;-65
2022/06/30 12:55:11;;;;;;;8.15;2.45;;;36.50;54.10;;;;;;5109483;28;20311;-66
2022/06/30 12:57:38;;;;;;;5.45;2.42;;;36.60;54.20;;;;;;5112788;28;20463;-66
2022/06/30 13:00:04;;;;;;;6.57;2.20;;;36.80;51.00;;;;;;5112514;28;20027;-66